createdAt,value
2017-07-01T00:00:28.703Z,23.97
2017-07-01T00:01:38.618Z,23.83
2017-07-01T00:02:48.522Z,23.87
2017-07-01T00:03:58.424Z,23.79
2017-07-01T00:05:08.633Z,23.85
2017-07-01T00:06:18.242Z,23.84
2017-07-01T00:07:28.146Z,23.78
2017-07-01T00:08:38.056Z,23.78
2017-07-01T00:09:48.266Z,23.84
2017-07-01T00:10:58.528Z,23.78
2017-07-01T00:12:08.573Z,23.78
2017-07-01T00:13:18.480Z,23.78
2017-07-01T00:14:28.681Z,23.79
2017-07-01T00:15:38.899Z,23.8
2017-07-01T00:16:49.122Z,23.78
2017-07-01T00:17:59.367Z,23.72
2017-07-01T00:19:09.276Z,23.76
2017-07-01T00:20:19.192Z,23.8
2017-07-01T00:21:29.438Z,23.75
2017-07-01T00:22:39.344Z,23.72
2017-07-01T00:23:49.394Z,23.78
2017-07-01T00:24:59.603Z,23.79
2017-07-01T00:26:09.494Z,23.76
2017-07-01T00:27:19.419Z,23.79
2017-07-01T00:28:29.637Z,23.7
2017-07-01T00:29:39.842Z,23.65
2017-07-01T00:30:49.737Z,23.84
2017-07-01T00:31:59.642Z,23.73
2017-07-01T00:33:09.545Z,23.78
2017-07-01T00:34:19.450Z,23.73
2017-07-01T00:35:29.810Z,23.73
2017-07-01T00:36:40.037Z,23.85
2017-07-01T00:37:49.928Z,23.78
2017-07-01T00:38:59.524Z,23.7
2017-07-01T00:40:09.731Z,23.7
2017-07-01T00:41:19.322Z,23.83
2017-07-01T00:42:28.910Z,23.78
2017-07-01T00:43:38.521Z,23.72
2017-07-01T00:44:48.421Z,23.78
2017-07-01T00:45:58.631Z,23.83
2017-07-01T00:47:08.892Z,23.76
2017-07-01T00:48:18.802Z,23.78
2017-07-01T00:49:29.021Z,23.72
2017-07-01T00:50:38.621Z,23.73
2017-07-01T00:51:48.240Z,23.79
2017-07-01T00:52:58.449Z,23.75
2017-07-01T00:54:08.670Z,23.84
2017-07-01T00:55:18.869Z,23.73
2017-07-01T00:56:28.773Z,23.79
2017-07-01T00:57:38.981Z,23.83
2017-07-01T00:58:48.645Z,23.8
2017-07-01T00:59:58.543Z,23.87
2017-07-01T01:01:08.767Z,23.76
2017-07-01T01:02:18.972Z,23.78
2017-07-01T01:03:28.865Z,23.78
2017-07-01T01:04:38.808Z,23.76
2017-07-01T01:05:48.098Z,23.72
2017-07-01T01:06:57.696Z,23.76
2017-07-01T01:08:07.594Z,23.83
2017-07-01T01:09:17.800Z,23.73
2017-07-01T01:10:28.156Z,23.79
2017-07-01T01:11:38.059Z,23.75
2017-07-01T01:12:47.970Z,23.72
2017-07-01T01:13:57.246Z,23.83
2017-07-01T01:15:07.165Z,23.79
2017-07-01T01:16:17.582Z,23.76
2017-07-01T01:17:27.792Z,23.75
2017-07-01T01:18:37.701Z,23.76
2017-07-01T01:19:47.938Z,23.83
2017-07-01T01:20:57.302Z,23.78
2017-07-01T01:22:07.680Z,23.79
2017-07-01T01:23:17.575Z,23.83
2017-07-01T01:24:27.792Z,23.78
2017-07-01T01:25:38.002Z,23.85
2017-07-01T01:26:47.908Z,23.87
2017-07-01T01:27:57.859Z,23.75
2017-07-01T01:29:07.449Z,23.76
2017-07-01T01:30:17.349Z,23.83
2017-07-01T01:31:26.021Z,23.8
2017-07-01T01:32:35.921Z,23.78
2017-07-01T01:33:45.971Z,23.75
2017-07-01T01:34:56.170Z,23.84
2017-07-01T01:36:05.779Z,23.76
2017-07-01T01:37:15.685Z,23.75
2017-07-01T01:38:25.887Z,23.87
2017-07-01T01:39:36.146Z,23.73
2017-07-01T01:40:46.049Z,23.83
2017-07-01T01:41:55.967Z,23.78
2017-07-01T01:43:05.873Z,23.79
2017-07-01T01:44:16.089Z,23.79
2017-07-01T01:45:26.142Z,23.8
2017-07-01T01:46:35.748Z,23.79
2017-07-01T01:47:45.644Z,23.8
2017-07-01T01:48:55.547Z,23.75
2017-07-01T01:50:05.157Z,23.84
2017-07-01T01:51:14.799Z,23.8
2017-07-01T01:52:25.038Z,23.79
2017-07-01T01:53:34.660Z,23.75
2017-07-01T01:54:44.570Z,23.72
2017-07-01T01:55:54.223Z,23.78
2017-07-01T01:57:03.934Z,23.78
2017-07-01T01:58:14.135Z,23.75
2017-07-01T01:59:24.043Z,23.83
2017-07-01T02:00:33.637Z,23.78
2017-07-01T02:01:43.552Z,23.7
2017-07-01T02:02:53.625Z,23.83
2017-07-01T02:04:03.262Z,23.8
2017-07-01T02:05:13.168Z,23.65
2017-07-01T02:06:23.081Z,23.8
2017-07-01T02:07:32.672Z,23.79
2017-07-01T02:08:42.872Z,23.75
2017-07-01T02:09:52.778Z,23.83
2017-07-01T02:11:02.685Z,23.72
2017-07-01T02:12:12.593Z,23.75
2017-07-01T02:13:22.492Z,23.7
2017-07-01T02:14:32.717Z,23.68
2017-07-01T02:15:42.629Z,23.65
2017-07-01T02:16:52.845Z,23.72
2017-07-01T02:18:03.050Z,23.63
2017-07-01T02:19:12.336Z,23.68
2017-07-01T02:20:22.242Z,23.68
2017-07-01T02:21:32.144Z,23.7
2017-07-01T02:22:42.361Z,23.66
2017-07-01T02:23:51.952Z,23.78
2017-07-01T02:25:01.852Z,23.63
2017-07-01T02:26:11.598Z,23.75
2017-07-01T02:27:21.813Z,23.79
2017-07-01T02:28:32.057Z,23.63
2017-07-01T02:29:41.649Z,23.72
2017-07-01T02:30:51.850Z,23.72
2017-07-01T02:33:10.441Z,23.73
2017-07-01T02:34:20.347Z,23.68
2017-07-01T02:35:29.957Z,23.73
2017-07-01T02:36:40.159Z,23.76
2017-07-01T02:37:50.070Z,23.7
2017-07-01T02:38:59.675Z,23.78
2017-07-01T02:40:09.591Z,23.7
2017-07-01T02:41:19.502Z,23.69
2017-07-01T02:42:29.094Z,23.7
2017-07-01T02:43:39.305Z,23.69
2017-07-01T02:44:48.897Z,23.76
2017-07-01T02:45:58.502Z,23.65
2017-07-01T02:47:08.099Z,23.69
2017-07-01T02:48:17.695Z,23.7
2017-07-01T02:49:27.900Z,23.72
2017-07-01T02:50:38.125Z,23.63
2017-07-01T02:51:47.719Z,23.68
2017-07-01T02:52:57.641Z,23.65
2017-07-01T02:54:07.569Z,23.66
2017-07-01T02:55:17.206Z,23.7
2017-07-01T02:56:27.413Z,23.66
2017-07-01T02:57:37.991Z,23.65
2017-07-01T02:58:48.213Z,23.6
2017-07-01T02:59:58.422Z,23.63
2017-07-01T03:01:08.636Z,23.65
2017-07-01T03:02:18.235Z,23.63
2017-07-01T03:03:28.137Z,23.6
2017-07-01T03:04:38.038Z,23.66
2017-07-01T03:05:47.342Z,23.63
2017-07-01T03:06:56.945Z,23.65
2017-07-01T03:08:06.853Z,23.65
2017-07-01T03:09:16.749Z,23.55
2017-07-01T03:10:26.960Z,23.66
2017-07-01T03:11:36.879Z,23.6
2017-07-01T03:12:47.085Z,23.63
2017-07-01T03:13:56.381Z,23.58
2017-07-01T03:15:06.285Z,23.58
2017-07-01T03:16:16.494Z,23.61
2017-07-01T03:17:26.083Z,23.55
2017-07-01T03:18:35.680Z,23.58
2017-07-01T03:19:45.897Z,23.55
2017-07-01T03:20:56.125Z,23.55
2017-07-01T03:22:05.720Z,23.58
2017-07-01T03:23:15.946Z,23.53
2017-07-01T03:24:25.863Z,23.54
2017-07-01T03:25:36.073Z,23.57
2017-07-01T03:26:46.269Z,23.54
2017-07-01T03:27:56.473Z,23.54
2017-07-01T03:29:06.067Z,23.53
2017-07-01T03:30:16.483Z,23.53
2017-07-01T03:31:26.077Z,23.48
2017-07-01T03:32:35.974Z,23.51
2017-07-01T03:33:46.189Z,23.48
2017-07-01T03:34:56.098Z,23.47
2017-07-01T03:36:06.298Z,23.51
2017-07-01T03:37:16.509Z,23.42
2017-07-01T03:38:26.409Z,23.4
2017-07-01T03:39:36.616Z,23.47
2017-07-01T03:40:45.911Z,23.46
2017-07-01T03:41:55.503Z,23.39
2017-07-01T03:43:05.106Z,23.4
2017-07-01T03:44:15.536Z,23.39
2017-07-01T03:45:25.441Z,23.36
2017-07-01T03:46:35.347Z,23.35
2017-07-01T03:47:44.943Z,23.4
2017-07-01T03:48:54.897Z,23.32
2017-07-01T03:50:04.507Z,23.39
2017-07-01T03:51:14.414Z,23.39
2017-07-01T03:52:24.313Z,23.39
2017-07-01T03:53:34.221Z,23.36
2017-07-01T03:54:44.121Z,23.4
2017-07-01T03:55:54.023Z,23.42
2017-07-01T03:57:03.623Z,23.35
2017-07-01T03:58:13.822Z,23.35
2017-07-01T03:59:23.723Z,23.39
2017-07-01T04:00:33.929Z,23.36
2017-07-01T04:01:43.584Z,23.39
2017-07-01T04:02:53.495Z,23.4
2017-07-01T04:04:03.704Z,23.39
2017-07-01T04:05:13.302Z,23.32
2017-07-01T04:06:23.200Z,23.43
2017-07-01T04:07:33.408Z,23.42
2017-07-01T04:08:42.997Z,23.4
2017-07-01T04:09:53.243Z,23.38
2017-07-01T04:11:02.831Z,23.39
2017-07-01T04:12:12.734Z,23.42
2017-07-01T04:13:22.940Z,23.25
2017-07-01T04:14:32.855Z,23.25
2017-07-01T04:15:42.790Z,23.25
2017-07-01T04:16:53.001Z,23.28
2017-07-01T04:18:02.601Z,23.31
2017-07-01T04:19:12.199Z,23.28
2017-07-01T04:20:22.414Z,23.25
2017-07-01T04:21:32.317Z,23.32
2017-07-01T04:22:41.919Z,23.27
2017-07-01T04:23:51.527Z,23.27
2017-07-01T04:25:01.759Z,23.23
2017-07-01T04:26:11.802Z,23.22
2017-07-01T04:27:21.458Z,23.35
2017-07-01T04:28:31.071Z,23.25
2017-07-01T04:29:41.061Z,23.28
2017-07-01T04:30:50.992Z,23.22
2017-07-01T04:32:00.909Z,23.31
2017-07-01T04:33:11.141Z,23.23
2017-07-01T04:34:21.380Z,23.32
2017-07-01T04:35:31.632Z,23.23
2017-07-01T04:36:41.250Z,23.27
2017-07-01T04:37:51.486Z,23.27
2017-07-01T04:39:01.100Z,23.25
2017-07-01T04:40:11.320Z,23.22
2017-07-01T04:41:20.625Z,23.28
2017-07-01T04:42:30.528Z,23.31
2017-07-01T04:43:40.432Z,23.2
2017-07-01T04:44:50.345Z,23.22
2017-07-01T04:46:00.553Z,23.25
2017-07-01T04:47:10.457Z,23.27
2017-07-01T04:48:20.664Z,23.15
2017-07-01T04:49:30.573Z,23.16
2017-07-01T04:50:40.777Z,23.2
2017-07-01T04:51:50.977Z,23.28
2017-07-01T04:53:01.192Z,23.23
2017-07-01T04:54:11.107Z,23.23
2017-07-01T04:55:21.312Z,23.28
2017-07-01T04:56:31.545Z,23.22
2017-07-01T04:57:40.857Z,23.25
2017-07-01T04:58:51.111Z,23.23
2017-07-01T05:00:00.735Z,23.25
2017-07-01T05:01:10.965Z,23.23
2017-07-01T05:02:20.563Z,23.12
2017-07-01T05:03:30.474Z,23.25
2017-07-01T05:04:40.376Z,23.15
2017-07-01T05:05:50.592Z,23.25
2017-07-01T05:07:00.182Z,23.2
2017-07-01T05:08:10.401Z,23.17
2017-07-01T05:09:20.613Z,23.23
2017-07-01T05:10:30.248Z,23.16
2017-07-01T05:11:39.548Z,23.15
2017-07-01T05:12:49.192Z,23.13
2017-07-01T05:13:59.408Z,23.22
2017-07-01T05:15:09.003Z,23.15
2017-07-01T05:16:18.302Z,23.23
2017-07-01T05:17:27.894Z,23.2
2017-07-01T05:18:38.129Z,23.17
2017-07-01T05:19:47.754Z,23.13
2017-07-01T05:20:57.686Z,23.17
2017-07-01T05:22:07.611Z,23.15
2017-07-01T05:23:17.525Z,23.22
2017-07-01T05:24:27.739Z,23.23
2017-07-01T05:25:37.696Z,23.17
2017-07-01T05:26:47.609Z,23.22
2017-07-01T05:27:56.908Z,23.15
2017-07-01T05:29:07.150Z,23.17
2017-07-01T05:30:17.354Z,23.15
2017-07-01T05:31:26.640Z,23.2
2017-07-01T05:32:36.550Z,23.15
2017-07-01T05:33:46.765Z,23.15
2017-07-01T05:34:56.668Z,23.15
2017-07-01T05:36:05.964Z,23.22
2017-07-01T05:37:16.174Z,23.13
2017-07-01T05:38:26.387Z,23.13
2017-07-01T05:39:36.291Z,23.1
2017-07-01T05:40:46.200Z,23.15
2017-07-01T05:41:56.104Z,23.16
2017-07-01T05:43:06.042Z,23.19
2017-07-01T05:44:15.673Z,23.28
2017-07-01T05:45:25.585Z,23.17
2017-07-01T05:46:35.491Z,23.17
2017-07-01T05:47:45.088Z,23.22
2017-07-01T05:48:55.296Z,23.16
2017-07-01T05:50:05.197Z,23.17
2017-07-01T05:51:15.096Z,23.19
2017-07-01T05:52:24.999Z,23.23
2017-07-01T05:53:34.605Z,23.22
2017-07-01T05:54:44.505Z,23.22
2017-07-01T05:55:54.403Z,23.17
2017-07-01T05:57:04.307Z,23.22
2017-07-01T05:58:14.211Z,23.19
2017-07-01T05:59:23.811Z,23.12
2017-07-01T06:00:33.778Z,23.19
2017-07-01T06:01:43.064Z,23.22
2017-07-01T06:02:53.276Z,23.23
2017-07-01T06:04:03.179Z,23.16
2017-07-01T06:05:13.093Z,23.22
2017-07-01T06:06:23.311Z,23.27
2017-07-01T06:07:32.612Z,23.31
2017-07-01T06:08:42.533Z,23.4
2017-07-01T06:09:51.835Z,23.38
2017-07-01T06:11:01.738Z,23.39
2017-07-01T06:12:11.944Z,23.46
2017-07-01T06:13:22.534Z,23.53
2017-07-01T06:14:32.149Z,23.53
2017-07-01T06:15:41.765Z,23.57
2017-07-01T06:16:51.367Z,23.54
2017-07-01T06:18:00.975Z,23.61
2017-07-01T06:19:10.891Z,23.61
2017-07-01T06:20:20.899Z,23.7
2017-07-01T06:21:30.802Z,23.75
2017-07-01T06:22:40.404Z,23.8
2017-07-01T06:23:50.623Z,23.73
2017-07-01T06:25:00.538Z,23.79
2017-07-01T06:26:10.461Z,23.84
2017-07-01T06:27:20.060Z,23.87
2017-07-01T06:28:29.986Z,23.84
2017-07-01T06:29:39.885Z,23.97
2017-07-01T06:30:50.105Z,23.88
2017-07-01T06:31:59.712Z,23.95
2017-07-01T06:33:09.922Z,24.06
2017-07-01T06:34:19.850Z,24
2017-07-01T06:35:29.766Z,24.08
2017-07-01T06:36:39.682Z,24.05
2017-07-01T06:37:49.731Z,24.09
2017-07-01T06:38:59.628Z,24.13
2017-07-01T06:40:09.527Z,24.2
2017-07-01T06:41:19.124Z,24.21
2017-07-01T06:42:29.029Z,24.21
2017-07-01T06:43:38.935Z,24.16
2017-07-01T06:44:48.225Z,24.18
2017-07-01T06:45:58.119Z,24.09
2017-07-01T06:47:08.043Z,24.16
2017-07-01T06:48:17.642Z,24.27
2017-07-01T06:49:27.552Z,24.27
2017-07-01T06:50:37.758Z,24.25
2017-07-01T06:51:47.972Z,24.28
2017-07-01T06:52:57.256Z,24.31
2017-07-01T06:54:06.861Z,24.39
2017-07-01T06:55:16.753Z,24.3
2017-07-01T06:56:26.967Z,24.34
2017-07-01T06:57:37.174Z,24.35
2017-07-01T06:58:47.093Z,24.32
2017-07-01T06:59:57.312Z,24.39
2017-07-01T07:01:07.537Z,24.42
2017-07-01T07:02:17.443Z,24.46
2017-07-01T07:03:27.664Z,24.5
2017-07-01T07:04:37.276Z,24.57
2017-07-01T07:05:47.486Z,24.47
2017-07-01T07:06:57.705Z,24.43
2017-07-01T07:08:07.922Z,24.53
2017-07-01T07:09:17.852Z,24.52
2017-07-01T07:10:27.773Z,24.58
2017-07-01T07:11:37.685Z,24.53
2017-07-01T07:12:47.908Z,24.57
2017-07-01T07:13:58.125Z,24.68
2017-07-01T07:15:08.036Z,24.6
2017-07-01T07:16:17.965Z,24.65
2017-07-01T07:17:27.866Z,24.67
2017-07-01T07:18:37.472Z,24.69
2017-07-01T07:19:47.901Z,24.68
2017-07-01T07:20:57.255Z,24.73
2017-07-01T07:22:07.478Z,24.76
2017-07-01T07:23:17.399Z,24.76
2017-07-01T07:24:27.010Z,24.76
2017-07-01T07:25:36.913Z,24.77
2017-07-01T07:26:47.134Z,24.85
2017-07-01T07:27:57.353Z,24.85
2017-07-01T07:29:07.559Z,24.76
2017-07-01T07:30:17.769Z,24.78
2017-07-01T07:31:27.990Z,24.81
2017-07-01T07:32:37.607Z,24.78
2017-07-01T07:33:47.826Z,24.83
2017-07-01T07:34:58.048Z,24.81
2017-07-01T07:36:07.962Z,24.88
2017-07-01T07:37:18.179Z,24.78
2017-07-01T07:38:28.391Z,24.93
2017-07-01T07:39:38.297Z,24.85
2017-07-01T07:40:49.415Z,24.9
2017-07-01T07:41:58.768Z,24.91
2017-07-01T07:43:08.712Z,24.88
2017-07-01T07:44:18.926Z,24.84
2017-07-01T07:45:28.545Z,24.88
2017-07-01T07:46:38.218Z,24.84
2017-07-01T07:47:48.427Z,24.88
2017-07-01T07:48:58.646Z,24.8
2017-07-01T07:50:08.868Z,24.81
2017-07-01T07:51:18.475Z,24.83
2017-07-01T07:52:28.381Z,24.84
2017-07-01T07:53:38.340Z,24.84
2017-07-01T07:54:47.935Z,24.78
2017-07-01T07:55:57.860Z,24.81
2017-07-01T07:57:07.777Z,24.8
2017-07-01T07:58:17.382Z,24.78
2017-07-01T07:59:27.614Z,24.85
2017-07-01T08:00:37.533Z,24.84
2017-07-01T08:01:47.129Z,24.93
2017-07-01T08:02:57.720Z,24.81
2017-07-01T08:04:07.635Z,24.8
2017-07-01T08:05:17.550Z,24.81
2017-07-01T08:06:27.454Z,24.83
2017-07-01T08:07:36.742Z,24.81
2017-07-01T08:08:46.952Z,24.81
2017-07-01T08:09:57.166Z,24.96
2017-07-01T08:11:07.375Z,24.83
2017-07-01T08:12:17.298Z,24.78
2017-07-01T08:13:27.239Z,24.81
2017-07-01T08:14:37.158Z,24.81
2017-07-01T08:15:47.378Z,24.8
2017-07-01T08:16:57.631Z,24.95
2017-07-01T08:18:07.237Z,24.88
2017-07-01T08:19:17.460Z,24.88
2017-07-01T08:20:27.358Z,24.83
2017-07-01T08:21:37.580Z,24.81
2017-07-01T08:22:47.505Z,24.81
2017-07-01T08:23:57.415Z,24.83
2017-07-01T08:25:07.634Z,24.88
2017-07-01T08:26:17.535Z,24.84
2017-07-01T08:27:26.226Z,24.78
2017-07-01T08:28:36.435Z,24.81
2017-07-01T08:29:46.039Z,24.81
2017-07-01T08:30:56.261Z,24.84
2017-07-01T08:32:06.471Z,24.8
2017-07-01T08:33:15.774Z,24.91
2017-07-01T08:34:25.998Z,24.81
2017-07-01T08:35:35.917Z,24.83
2017-07-01T08:36:46.141Z,24.91
2017-07-01T08:37:56.365Z,24.83
2017-07-01T08:39:06.668Z,24.83
2017-07-01T08:40:16.873Z,24.83
2017-07-01T08:41:26.784Z,24.81
2017-07-01T08:42:36.994Z,24.96
2017-07-01T08:43:47.223Z,24.81
2017-07-01T08:44:57.149Z,24.84
2017-07-01T08:46:07.057Z,24.81
2017-07-01T08:47:17.027Z,24.78
2017-07-01T08:48:27.242Z,24.83
2017-07-01T08:49:36.854Z,24.81
2017-07-01T08:50:47.082Z,24.81
2017-07-01T08:51:57.155Z,24.84
2017-07-01T08:53:07.066Z,24.77
2017-07-01T08:54:17.283Z,24.87
2017-07-01T08:55:26.885Z,24.8
2017-07-01T08:56:36.191Z,24.85
2017-07-01T08:57:46.095Z,24.81
2017-07-01T08:58:56.011Z,24.76
2017-07-01T09:00:05.930Z,24.9
2017-07-01T09:01:15.542Z,24.81
2017-07-01T09:02:25.464Z,24.91
2017-07-01T09:03:35.075Z,24.93
2017-07-01T09:04:45.039Z,24.96
2017-07-01T09:05:54.955Z,24.93
2017-07-01T09:07:04.554Z,24.95
2017-07-01T09:08:14.772Z,24.9
2017-07-01T09:09:24.991Z,24.95
2017-07-01T09:10:35.212Z,24.91
2017-07-01T09:11:44.826Z,24.93
2017-07-01T09:12:54.131Z,24.91
2017-07-01T09:14:04.342Z,24.91
2017-07-01T09:15:14.253Z,24.93
2017-07-01T09:16:23.854Z,24.91
2017-07-01T09:17:34.081Z,24.91
2017-07-01T09:18:44.314Z,25.03
2017-07-01T09:19:54.536Z,25.02
2017-07-01T09:21:04.759Z,24.91
2017-07-01T09:22:14.368Z,24.95
2017-07-01T09:23:24.288Z,24.95
2017-07-01T09:24:34.514Z,24.96
2017-07-01T09:25:44.427Z,24.95
2017-07-01T09:26:54.350Z,24.95
2017-07-01T09:28:03.962Z,24.95
2017-07-01T09:29:14.176Z,24.98
2017-07-01T09:30:23.780Z,24.99
2017-07-01T09:31:33.984Z,24.95
2017-07-01T09:32:43.908Z,24.93
2017-07-01T09:33:54.131Z,24.95
2017-07-01T09:35:04.039Z,24.95
2017-07-01T09:36:13.959Z,24.95
2017-07-01T09:37:23.581Z,24.95
2017-07-01T09:38:33.493Z,24.96
2017-07-01T09:39:43.715Z,24.93
2017-07-01T09:40:53.635Z,24.95
2017-07-01T09:42:02.934Z,24.98
2017-07-01T09:43:12.846Z,24.98
2017-07-01T09:44:22.759Z,24.98
2017-07-01T09:45:32.449Z,25.02
2017-07-01T09:46:42.056Z,25
2017-07-01T09:47:52.285Z,24.95
2017-07-01T09:49:02.260Z,24.98
2017-07-01T09:50:11.880Z,24.91
2017-07-01T09:51:21.491Z,24.96
2017-07-01T09:52:31.101Z,24.9
2017-07-01T09:53:41.009Z,24.98
2017-07-01T09:54:50.615Z,24.98
2017-07-01T09:56:00.534Z,24.9
2017-07-01T09:57:10.479Z,24.91
2017-07-01T09:58:20.393Z,24.95
2017-07-01T09:59:30.017Z,24.9
2017-07-01T10:00:39.936Z,24.93
2017-07-01T10:01:49.546Z,24.98
2017-07-01T10:02:59.478Z,24.96
2017-07-01T10:04:08.785Z,24.96
2017-07-01T10:05:18.073Z,25
2017-07-01T10:06:27.996Z,24.98
2017-07-01T10:07:37.903Z,24.9
2017-07-01T10:08:47.820Z,24.9
2017-07-01T10:09:57.743Z,24.98
2017-07-01T10:11:07.667Z,24.95
2017-07-01T10:12:17.270Z,24.96
2017-07-01T10:13:27.189Z,24.87
2017-07-01T10:14:36.493Z,24.91
2017-07-01T10:15:45.818Z,24.96
2017-07-01T10:16:55.736Z,24.98
2017-07-01T10:18:05.657Z,24.93
2017-07-01T10:19:15.663Z,24.9
2017-07-01T10:20:25.612Z,25
2017-07-01T10:21:35.213Z,24.98
2017-07-01T10:22:45.138Z,24.95
2017-07-01T10:23:55.048Z,25
2017-07-01T10:25:04.972Z,24.9
2017-07-01T10:26:14.898Z,24.98
2017-07-01T10:27:24.812Z,24.98
2017-07-01T10:28:34.410Z,25.02
2017-07-01T10:29:43.403Z,25.06
2017-07-01T10:30:52.711Z,24.93
2017-07-01T10:32:02.005Z,24.98
2017-07-01T10:33:12.225Z,25.05
2017-07-01T10:34:22.461Z,25.05
2017-07-01T10:35:32.061Z,25.06
2017-07-01T10:36:42.082Z,24.99
2017-07-01T10:37:51.690Z,24.98
2017-07-01T10:39:01.315Z,24.98
2017-07-01T10:40:11.218Z,24.98
2017-07-01T10:41:20.850Z,24.98
2017-07-01T10:42:30.756Z,24.91
2017-07-01T10:43:40.964Z,25.02
2017-07-01T10:44:51.181Z,24.95
2017-07-01T10:46:01.091Z,24.9
2017-07-01T10:47:11.313Z,24.9
2017-07-01T10:48:21.533Z,24.95
2017-07-01T10:49:30.837Z,24.91
2017-07-01T10:50:41.050Z,24.91
2017-07-01T10:51:50.972Z,24.9
2017-07-01T10:53:00.934Z,24.9
2017-07-01T10:54:10.844Z,24.95
2017-07-01T10:55:20.763Z,24.88
2017-07-01T10:56:30.667Z,24.95
2017-07-01T10:57:40.871Z,24.88
2017-07-01T10:58:50.774Z,24.91
2017-07-01T11:00:00.386Z,24.93
2017-07-01T11:01:09.693Z,24.91
2017-07-01T11:02:19.613Z,24.91
2017-07-01T11:03:29.848Z,24.9
2017-07-01T11:04:39.758Z,24.9
2017-07-01T11:05:49.674Z,24.91
2017-07-01T11:06:59.593Z,24.93
2017-07-01T11:08:09.224Z,24.88
2017-07-01T11:09:19.148Z,24.9
2017-07-01T11:10:28.758Z,24.9
2017-07-01T11:11:38.055Z,24.88
2017-07-01T11:12:47.965Z,24.96
2017-07-01T11:13:58.201Z,24.96
2017-07-01T11:15:08.162Z,24.95
2017-07-01T11:16:18.389Z,24.96
2017-07-01T11:17:27.705Z,24.88
2017-07-01T11:18:37.006Z,24.95
2017-07-01T11:19:46.617Z,24.98
2017-07-01T11:20:56.234Z,24.96
2017-07-01T11:22:06.153Z,24.88
2017-07-01T11:23:16.070Z,24.95
2017-07-01T11:24:25.998Z,24.9
2017-07-01T11:25:35.932Z,24.93
2017-07-01T11:26:46.149Z,24.93
2017-07-01T11:27:56.370Z,24.9
2017-07-01T11:29:05.682Z,24.88
2017-07-01T11:30:15.623Z,24.88
2017-07-01T11:31:25.868Z,24.93
2017-07-01T11:32:36.071Z,24.84
2017-07-01T11:33:45.974Z,24.91
2017-07-01T11:34:56.185Z,24.91
2017-07-01T11:36:06.137Z,24.78
2017-07-01T11:37:16.365Z,24.9
2017-07-01T11:38:26.591Z,24.91
2017-07-01T11:39:36.800Z,24.95
2017-07-01T11:40:46.716Z,24.93
2017-07-01T11:41:56.324Z,24.95
2017-07-01T11:43:06.239Z,24.93
2017-07-01T11:44:16.145Z,24.91
2017-07-01T11:45:26.360Z,24.88
2017-07-01T11:46:35.965Z,24.9
2017-07-01T11:47:45.895Z,24.9
2017-07-01T11:48:55.812Z,24.95
2017-07-01T11:50:05.726Z,24.9
2017-07-01T11:51:15.643Z,24.9
2017-07-01T11:52:25.572Z,24.93
2017-07-01T11:53:35.510Z,24.88
2017-07-01T11:54:45.719Z,24.95
2017-07-01T11:55:55.625Z,24.95
2017-07-01T11:57:04.927Z,24.96
2017-07-01T11:58:14.841Z,24.96
2017-07-01T11:59:24.442Z,24.95
2017-07-01T12:00:34.366Z,24.91
2017-07-01T12:01:44.605Z,24.91
2017-07-01T12:02:54.839Z,24.9
2017-07-01T12:04:05.098Z,24.9
2017-07-01T12:05:15.012Z,24.98
2017-07-01T12:06:24.663Z,24.93
2017-07-01T12:07:33.946Z,24.96
2017-07-01T12:08:43.239Z,24.85
2017-07-01T12:09:53.506Z,24.88
2017-07-01T12:11:03.712Z,24.91
2017-07-01T12:12:13.322Z,24.81
2017-07-01T12:13:23.230Z,24.9
2017-07-01T12:14:33.143Z,24.78
2017-07-01T12:15:42.753Z,24.84
2017-07-01T12:16:52.346Z,24.84
2017-07-01T12:18:02.251Z,24.87
2017-07-01T12:19:12.177Z,24.93
2017-07-01T12:20:22.081Z,24.93
2017-07-01T12:21:31.985Z,24.88
2017-07-01T12:22:41.898Z,24.91
2017-07-01T12:23:52.127Z,24.9
2017-07-01T12:25:02.063Z,24.91
2017-07-01T12:26:11.988Z,24.93
2017-07-01T12:27:21.293Z,24.93
2017-07-01T12:28:31.210Z,24.91
2017-07-01T12:29:41.141Z,24.91
2017-07-01T12:30:50.763Z,24.93
2017-07-01T12:32:00.993Z,24.96
2017-07-01T12:33:10.936Z,24.9
2017-07-01T12:34:20.239Z,24.98
2017-07-01T12:35:29.868Z,24.96
2017-07-01T12:36:40.117Z,25.03
2017-07-01T12:37:49.764Z,25.13
2017-07-01T12:38:59.747Z,25.06
2017-07-01T12:40:09.366Z,25.08
2017-07-01T12:41:19.278Z,25.18
2017-07-01T12:42:29.503Z,25.1
2017-07-01T12:43:39.728Z,25.06
2017-07-01T12:44:49.034Z,25.08
2017-07-01T12:45:59.268Z,25.1
2017-07-01T12:47:09.499Z,25.15
2017-07-01T12:48:19.726Z,25.1
2017-07-01T12:49:29.663Z,25.17
2017-07-01T12:50:39.255Z,25.1
2017-07-01T12:51:48.856Z,25.1
2017-07-01T12:52:58.767Z,25.13
2017-07-01T12:54:08.994Z,25.13
2017-07-01T12:55:18.909Z,25.18
2017-07-01T12:56:28.820Z,25.08
2017-07-01T12:57:38.442Z,25
2017-07-01T12:58:48.362Z,25.08
2017-07-01T12:59:58.266Z,25.06
2017-07-01T13:01:08.171Z,25
2017-07-01T13:02:18.387Z,25.13
2017-07-01T13:03:28.612Z,25
2017-07-01T13:04:38.575Z,25
2017-07-01T13:05:48.485Z,25.06
2017-07-01T13:06:58.712Z,25.05
2017-07-01T13:08:08.634Z,25.1
2017-07-01T13:09:18.849Z,25.08
2017-07-01T13:10:29.083Z,25.08
2017-07-01T13:11:39.010Z,25.08
2017-07-01T13:12:48.929Z,25.03
2017-07-01T13:13:58.552Z,25.09
2017-07-01T13:15:08.781Z,25.1
2017-07-01T13:16:18.671Z,25.13
2017-07-01T13:17:28.581Z,25.09
2017-07-01T13:18:38.472Z,25.08
2017-07-01T13:19:48.071Z,25.06
2017-07-01T13:20:57.971Z,25.09
2017-07-01T13:22:07.890Z,25.1
2017-07-01T13:23:18.109Z,25.05
2017-07-01T13:24:27.710Z,25.06
2017-07-01T13:25:37.311Z,25.06
2017-07-01T13:26:47.525Z,25.1
2017-07-01T13:27:57.433Z,25.08
2017-07-01T13:29:07.358Z,25.06
2017-07-01T13:30:17.578Z,25.03
2017-07-01T13:31:27.494Z,25
2017-07-01T13:32:37.109Z,24.99
2017-07-01T13:33:46.427Z,25.03
2017-07-01T13:34:56.033Z,25.09
2017-07-01T13:36:05.633Z,25.14
2017-07-01T13:37:15.550Z,25.05
2017-07-01T13:38:25.755Z,25.08
2017-07-01T13:39:35.663Z,25.03
2017-07-01T13:40:45.564Z,25.06
2017-07-01T13:41:55.174Z,25.09
2017-07-01T13:43:04.766Z,25.02
2017-07-01T13:44:14.676Z,25.05
2017-07-01T13:45:24.582Z,24.96
2017-07-01T13:46:34.189Z,25.05
2017-07-01T13:47:44.096Z,25.06
2017-07-01T13:48:54.007Z,25.05
2017-07-01T13:50:03.611Z,25.08
2017-07-01T13:51:13.825Z,25.09
2017-07-01T13:52:23.431Z,25.09
2017-07-01T13:53:33.332Z,25.06
2017-07-01T13:54:43.231Z,25.09
2017-07-01T13:55:53.150Z,25.09
2017-07-01T13:57:03.073Z,25.08
2017-07-01T13:58:13.314Z,25.09
2017-07-01T13:59:23.539Z,25.09
2017-07-01T14:00:33.143Z,25.13
2017-07-01T14:01:43.351Z,25.06
2017-07-01T14:02:53.569Z,25.14
2017-07-01T14:04:03.482Z,25.08
2017-07-01T14:05:13.693Z,25.1
2017-07-01T14:06:23.294Z,25.06
2017-07-01T14:07:32.886Z,25.13
2017-07-01T14:08:42.483Z,25.14
2017-07-01T14:09:52.710Z,25.08
2017-07-01T14:11:02.934Z,25.13
2017-07-01T14:12:12.841Z,25.06
2017-07-01T14:13:22.489Z,25.06
2017-07-01T14:14:32.092Z,25.17
2017-07-01T14:15:42.307Z,25.1
2017-07-01T14:16:52.230Z,25.13
2017-07-01T14:18:01.830Z,25.14
2017-07-01T14:19:11.447Z,25.15
2017-07-01T14:20:21.358Z,25.1
2017-07-01T14:21:31.570Z,25.17
2017-07-01T14:22:41.184Z,25.13
2017-07-01T14:23:50.482Z,25.14
2017-07-01T14:25:00.392Z,25.13
2017-07-01T14:26:10.320Z,25.08
2017-07-01T14:27:20.548Z,25.08
2017-07-01T14:28:30.761Z,25.13
2017-07-01T14:29:40.984Z,25.13
2017-07-01T14:30:50.909Z,25.13
2017-07-01T14:32:01.140Z,25.18
2017-07-01T14:33:11.068Z,25.14
2017-07-01T14:34:21.384Z,25.13
2017-07-01T14:35:31.318Z,25.08
2017-07-01T14:36:40.932Z,25.06
2017-07-01T14:37:51.146Z,25.08
2017-07-01T14:39:01.372Z,25.09
2017-07-01T14:40:10.981Z,25.08
2017-07-01T14:41:20.628Z,25.05
2017-07-01T14:42:30.837Z,25.09
2017-07-01T14:43:41.061Z,25.03
2017-07-01T14:44:50.970Z,25.15
2017-07-01T14:46:00.572Z,25.1
2017-07-01T14:47:10.786Z,25.09
2017-07-01T14:48:20.683Z,25.13
2017-07-01T14:49:30.298Z,25.13
2017-07-01T14:50:39.907Z,25.1
2017-07-01T14:51:48.609Z,25.09
2017-07-01T14:52:58.221Z,25.05
2017-07-01T14:54:08.435Z,25.1
2017-07-01T14:55:18.655Z,25.13
2017-07-01T14:56:28.864Z,25.1
2017-07-01T14:57:38.768Z,25.13
2017-07-01T14:58:48.993Z,25.1
2017-07-01T14:59:58.598Z,25.08
2017-07-01T15:01:07.899Z,25.09
2017-07-01T15:02:17.813Z,25.09
2017-07-01T15:03:27.432Z,25.03
2017-07-01T15:04:37.187Z,25.06
2017-07-01T15:05:47.408Z,25.08